sensor_id;sensor_type;location;lat;lon;timestamp;P1;durP1;ratioP1;P2;durP2;ratioP2
11582;SDS011;34299;50.820;4.548;2022-08-19T00:01:46;10.97;;;7.37;;
11582;SDS011;34299;50.820;4.548;2022-08-19T00:04:14;7.87;;;6.57;;
11582;SDS011;34299;50.820;4.548;2022-08-19T00:06:43;9.93;;;7.33;;
11582;SDS011;34299;50.820;4.548;2022-08-19T00:09:13;9.80;;;7.27;;
11582;SDS011;34299;50.820;4.548;2022-08-19T00:11:40;10.83;;;7.60;;
11582;SDS011;34299;50.820;4.548;2022-08-19T00:14:09;11.47;;;7.57;;
11582;SDS011;34299;50.820;4.548;2022-08-19T00:16:37;9.83;;;6.90;;
11582;SDS011;34299;50.820;4.548;2022-08-19T00:19:04;8.97;;;6.33;;
11582;SDS011;34299;50.820;4.548;2022-08-19T00:21:32;12.77;;;7.10;;
11582;SDS011;34299;50.820;4.548;2022-08-19T00:24:05;10.30;;;7.23;;
11582;SDS011;34299;50.820;4.548;2022-08-19T00:26:34;7.67;;;6.87;;
11582;SDS011;34299;50.820;4.548;2022-08-19T00:29:02;11.57;;;8.73;;
11582;SDS011;34299;50.820;4.548;2022-08-19T00:31:29;9.90;;;8.67;;
11582;SDS011;34299;50.820;4.548;2022-08-19T00:33:56;12.13;;;8.20;;
11582;SDS011;34299;50.820;4.548;2022-08-19T00:36:24;15.00;;;9.73;;
11582;SDS011;34299;50.820;4.548;2022-08-19T00:38:51;12.30;;;9.00;;
11582;SDS011;34299;50.820;4.548;2022-08-19T00:41:19;13.23;;;9.63;;
11582;SDS011;34299;50.820;4.548;2022-08-19T00:43:57;16.10;;;10.00;;
11582;SDS011;34299;50.820;4.548;2022-08-19T00:46:25;13.70;;;9.03;;
11582;SDS011;34299;50.820;4.548;2022-08-19T00:48:52;14.33;;;8.93;;
11582;SDS011;34299;50.820;4.548;2022-08-19T00:51:20;14.43;;;9.33;;
11582;SDS011;34299;50.820;4.548;2022-08-19T00:53:48;13.27;;;9.10;;
11582;SDS011;34299;50.820;4.548;2022-08-19T00:56:15;17.97;;;11.63;;
11582;SDS011;34299;50.820;4.548;2022-08-19T00:58:43;16.33;;;11.63;;
11582;SDS011;34299;50.820;4.548;2022-08-19T01:01:12;22.43;;;12.40;;
11582;SDS011;34299;50.820;4.548;2022-08-19T01:03:39;15.50;;;11.00;;
11582;SDS011;34299;50.820;4.548;2022-08-19T01:06:07;21.47;;;13.10;;
11582;SDS011;34299;50.820;4.548;2022-08-19T01:08:34;21.17;;;13.60;;
11582;SDS011;34299;50.820;4.548;2022-08-19T01:11:01;22.83;;;13.67;;
11582;SDS011;34299;50.820;4.548;2022-08-19T01:13:30;23.23;;;13.87;;
11582;SDS011;34299;50.820;4.548;2022-08-19T01:15:59;24.57;;;14.07;;
11582;SDS011;34299;50.820;4.548;2022-08-19T01:18:29;27.87;;;15.57;;
11582;SDS011;34299;50.820;4.548;2022-08-19T01:20:58;29.97;;;17.17;;
11582;SDS011;34299;50.820;4.548;2022-08-19T01:23:29;31.93;;;16.73;;
11582;SDS011;34299;50.820;4.548;2022-08-19T01:26:09;34.77;;;17.40;;
11582;SDS011;34299;50.820;4.548;2022-08-19T01:28:37;35.00;;;19.20;;
11582;SDS011;34299;50.820;4.548;2022-08-19T01:31:04;30.23;;;17.37;;
11582;SDS011;34299;50.820;4.548;2022-08-19T01:33:32;31.43;;;17.20;;
11582;SDS011;34299;50.820;4.548;2022-08-19T01:36:06;30.83;;;16.57;;
11582;SDS011;34299;50.820;4.548;2022-08-19T01:38:36;30.57;;;17.30;;
11582;SDS011;34299;50.820;4.548;2022-08-19T01:41:04;30.93;;;17.27;;
11582;SDS011;34299;50.820;4.548;2022-08-19T01:43:32;34.43;;;18.93;;
11582;SDS011;34299;50.820;4.548;2022-08-19T01:45:59;35.93;;;20.80;;
11582;SDS011;34299;50.820;4.548;2022-08-19T01:48:32;33.37;;;17.97;;
11582;SDS011;34299;50.820;4.548;2022-08-19T01:50:59;32.27;;;18.47;;
11582;SDS011;34299;50.820;4.548;2022-08-19T01:53:26;34.33;;;19.70;;
11582;SDS011;34299;50.820;4.548;2022-08-19T01:55:55;39.00;;;20.10;;
11582;SDS011;34299;50.820;4.548;2022-08-19T01:58:23;35.27;;;19.73;;
11582;SDS011;34299;50.820;4.548;2022-08-19T02:00:51;38.10;;;19.43;;
11582;SDS011;34299;50.820;4.548;2022-08-19T02:03:18;41.00;;;20.60;;
11582;SDS011;34299;50.820;4.548;2022-08-19T02:05:45;39.83;;;20.10;;
11582;SDS011;34299;50.820;4.548;2022-08-19T02:08:13;38.60;;;21.17;;
11582;SDS011;34299;50.820;4.548;2022-08-19T02:10:41;35.27;;;19.93;;
11582;SDS011;34299;50.820;4.548;2022-08-19T02:13:10;41.33;;;21.30;;
11582;SDS011;34299;50.820;4.548;2022-08-19T02:15:38;33.17;;;19.43;;
11582;SDS011;34299;50.820;4.548;2022-08-19T02:18:06;35.10;;;20.27;;
11582;SDS011;34299;50.820;4.548;2022-08-19T02:20:33;34.00;;;19.03;;
11582;SDS011;34299;50.820;4.548;2022-08-19T02:23:00;36.07;;;19.23;;
11582;SDS011;34299;50.820;4.548;2022-08-19T02:25:28;35.00;;;18.60;;
11582;SDS011;34299;50.820;4.548;2022-08-19T02:27:55;30.87;;;18.07;;
11582;SDS011;34299;50.820;4.548;2022-08-19T02:30:24;36.83;;;19.03;;
11582;SDS011;34299;50.820;4.548;2022-08-19T02:32:51;32.07;;;17.90;;
11582;SDS011;34299;50.820;4.548;2022-08-19T02:35:19;35.60;;;19.83;;
11582;SDS011;34299;50.820;4.548;2022-08-19T02:37:46;30.40;;;17.53;;
11582;SDS011;34299;50.820;4.548;2022-08-19T02:40:32;31.70;;;20.43;;
11582;SDS011;34299;50.820;4.548;2022-08-19T02:42:59;38.33;;;21.43;;
11582;SDS011;34299;50.820;4.548;2022-08-19T02:45:30;33.10;;;21.20;;
11582;SDS011;34299;50.820;4.548;2022-08-19T02:47:58;29.40;;;20.17;;
11582;SDS011;34299;50.820;4.548;2022-08-19T02:50:25;29.40;;;20.67;;
11582;SDS011;34299;50.820;4.548;2022-08-19T02:52:52;31.57;;;19.13;;
11582;SDS011;34299;50.820;4.548;2022-08-19T02:55:20;29.87;;;19.23;;
11582;SDS011;34299;50.820;4.548;2022-08-19T02:57:47;36.03;;;20.67;;
11582;SDS011;34299;50.820;4.548;2022-08-19T03:00:14;32.77;;;19.67;;
11582;SDS011;34299;50.820;4.548;2022-08-19T03:02:43;32.37;;;17.13;;
11582;SDS011;34299;50.820;4.548;2022-08-19T03:05:11;27.23;;;16.40;;
11582;SDS011;34299;50.820;4.548;2022-08-19T03:07:38;25.27;;;15.67;;
11582;SDS011;34299;50.820;4.548;2022-08-19T03:10:06;31.67;;;17.20;;
11582;SDS011;34299;50.820;4.548;2022-08-19T03:12:35;22.77;;;14.53;;
11582;SDS011;34299;50.820;4.548;2022-08-19T03:15:03;26.40;;;15.93;;
11582;SDS011;34299;50.820;4.548;2022-08-19T03:17:31;25.13;;;14.67;;
11582;SDS011;34299;50.820;4.548;2022-08-19T03:19:59;27.20;;;16.77;;
11582;SDS011;34299;50.820;4.548;2022-08-19T03:22:27;24.30;;;15.00;;
11582;SDS011;34299;50.820;4.548;2022-08-19T03:24:55;27.87;;;16.17;;
11582;SDS011;34299;50.820;4.548;2022-08-19T03:27:22;26.40;;;15.47;;
11582;SDS011;34299;50.820;4.548;2022-08-19T03:29:49;26.33;;;15.67;;
11582;SDS011;34299;50.820;4.548;2022-08-19T03:32:17;28.83;;;15.47;;
11582;SDS011;34299;50.820;4.548;2022-08-19T03:34:44;27.67;;;14.80;;
11582;SDS011;34299;50.820;4.548;2022-08-19T03:37:12;27.10;;;15.17;;
11582;SDS011;34299;50.820;4.548;2022-08-19T03:39:40;27.27;;;14.03;;
11582;SDS011;34299;50.820;4.548;2022-08-19T03:42:07;23.37;;;14.50;;
11582;SDS011;34299;50.820;4.548;2022-08-19T03:44:34;24.13;;;14.50;;
11582;SDS011;34299;50.820;4.548;2022-08-19T03:47:02;26.40;;;15.67;;
11582;SDS011;34299;50.820;4.548;2022-08-19T03:49:31;25.50;;;16.03;;
11582;SDS011;34299;50.820;4.548;2022-08-19T03:52:00;26.87;;;15.83;;
11582;SDS011;34299;50.820;4.548;2022-08-19T03:54:28;24.23;;;13.97;;
11582;SDS011;34299;50.820;4.548;2022-08-19T03:56:56;23.97;;;14.13;;
11582;SDS011;34299;50.820;4.548;2022-08-19T03:59:25;24.67;;;13.70;;
11582;SDS011;34299;50.820;4.548;2022-08-19T04:01:53;28.73;;;14.70;;
11582;SDS011;34299;50.820;4.548;2022-08-19T04:04:21;24.83;;;13.70;;
11582;SDS011;34299;50.820;4.548;2022-08-19T04:06:48;23.03;;;13.90;;
11582;SDS011;34299;50.820;4.548;2022-08-19T04:09:16;22.23;;;13.33;;
11582;SDS011;34299;50.820;4.548;2022-08-19T04:11:46;24.90;;;12.90;;
11582;SDS011;34299;50.820;4.548;2022-08-19T04:14:15;25.10;;;13.97;;
11582;SDS011;34299;50.820;4.548;2022-08-19T04:16:43;25.60;;;14.03;;
11582;SDS011;34299;50.820;4.548;2022-08-19T04:19:12;24.73;;;13.80;;
11582;SDS011;34299;50.820;4.548;2022-08-19T04:21:39;28.33;;;14.77;;
11582;SDS011;34299;50.820;4.548;2022-08-19T04:24:07;28.13;;;12.93;;
11582;SDS011;34299;50.820;4.548;2022-08-19T04:26:35;26.10;;;14.23;;
11582;SDS011;34299;50.820;4.548;2022-08-19T04:29:06;21.37;;;12.60;;
11582;SDS011;34299;50.820;4.548;2022-08-19T04:31:33;23.70;;;13.00;;
11582;SDS011;34299;50.820;4.548;2022-08-19T04:34:02;27.40;;;14.40;;
11582;SDS011;34299;50.820;4.548;2022-08-19T04:36:31;20.37;;;12.60;;
11582;SDS011;34299;50.820;4.548;2022-08-19T04:38:59;24.00;;;13.17;;
11582;SDS011;34299;50.820;4.548;2022-08-19T04:41:28;26.10;;;14.10;;
11582;SDS011;34299;50.820;4.548;2022-08-19T04:44:14;27.97;;;14.43;;
11582;SDS011;34299;50.820;4.548;2022-08-19T04:46:43;23.40;;;13.57;;
11582;SDS011;34299;50.820;4.548;2022-08-19T04:49:10;25.97;;;12.60;;
11582;SDS011;34299;50.820;4.548;2022-08-19T04:51:39;24.60;;;13.40;;
11582;SDS011;34299;50.820;4.548;2022-08-19T04:54:07;25.30;;;12.90;;
11582;SDS011;34299;50.820;4.548;2022-08-19T04:56:34;21.50;;;13.27;;
11582;SDS011;34299;50.820;4.548;2022-08-19T04:59:01;27.90;;;13.00;;
11582;SDS011;34299;50.820;4.548;2022-08-19T05:01:31;29.00;;;13.73;;
11582;SDS011;34299;50.820;4.548;2022-08-19T05:03:59;24.80;;;12.70;;
11582;SDS011;34299;50.820;4.548;2022-08-19T05:06:26;29.93;;;14.10;;
11582;SDS011;34299;50.820;4.548;2022-08-19T05:08:58;24.53;;;13.70;;
11582;SDS011;34299;50.820;4.548;2022-08-19T05:11:26;24.77;;;12.37;;
11582;SDS011;34299;50.820;4.548;2022-08-19T05:13:54;25.03;;;13.27;;
11582;SDS011;34299;50.820;4.548;2022-08-19T05:16:22;24.70;;;13.60;;
11582;SDS011;34299;50.820;4.548;2022-08-19T05:18:51;23.23;;;13.73;;
11582;SDS011;34299;50.820;4.548;2022-08-19T05:21:36;22.03;;;12.93;;
11582;SDS011;34299;50.820;4.548;2022-08-19T05:24:22;25.97;;;13.97;;
11582;SDS011;34299;50.820;4.548;2022-08-19T05:26:50;31.13;;;14.27;;
11582;SDS011;34299;50.820;4.548;2022-08-19T05:29:21;28.37;;;13.97;;
11582;SDS011;34299;50.820;4.548;2022-08-19T05:31:49;28.90;;;15.10;;
11582;SDS011;34299;50.820;4.548;2022-08-19T05:34:19;30.57;;;14.40;;
11582;SDS011;34299;50.820;4.548;2022-08-19T05:36:47;30.43;;;13.13;;
11582;SDS011;34299;50.820;4.548;2022-08-19T05:39:15;23.47;;;13.13;;
11582;SDS011;34299;50.820;4.548;2022-08-19T05:41:43;34.90;;;15.73;;
11582;SDS011;34299;50.820;4.548;2022-08-19T05:44:11;26.00;;;12.87;;
11582;SDS011;34299;50.820;4.548;2022-08-19T05:46:38;27.23;;;13.20;;
11582;SDS011;34299;50.820;4.548;2022-08-19T05:49:06;28.47;;;13.67;;
11582;SDS011;34299;50.820;4.548;2022-08-19T05:51:35;23.47;;;13.03;;
11582;SDS011;34299;50.820;4.548;2022-08-19T05:54:03;27.43;;;12.97;;
11582;SDS011;34299;50.820;4.548;2022-08-19T05:56:32;23.30;;;11.93;;
11582;SDS011;34299;50.820;4.548;2022-08-19T05:59:01;24.90;;;12.63;;
11582;SDS011;34299;50.820;4.548;2022-08-19T06:01:29;23.77;;;13.27;;
11582;SDS011;34299;50.820;4.548;2022-08-19T06:03:56;19.33;;;11.10;;
11582;SDS011;34299;50.820;4.548;2022-08-19T06:06:24;23.57;;;12.80;;
11582;SDS011;34299;50.820;4.548;2022-08-19T06:08:53;26.50;;;12.57;;
11582;SDS011;34299;50.820;4.548;2022-08-19T06:11:22;25.43;;;12.37;;
11582;SDS011;34299;50.820;4.548;2022-08-19T06:13:50;18.80;;;12.17;;
11582;SDS011;34299;50.820;4.548;2022-08-19T06:16:18;25.83;;;11.93;;
11582;SDS011;34299;50.820;4.548;2022-08-19T06:18:47;17.50;;;10.00;;
11582;SDS011;34299;50.820;4.548;2022-08-19T06:21:15;19.80;;;11.07;;
11582;SDS011;34299;50.820;4.548;2022-08-19T06:23:42;18.37;;;10.73;;
11582;SDS011;34299;50.820;4.548;2022-08-19T06:26:12;19.13;;;10.53;;
11582;SDS011;34299;50.820;4.548;2022-08-19T06:28:39;21.43;;;11.77;;
11582;SDS011;34299;50.820;4.548;2022-08-19T06:31:12;17.10;;;10.13;;
11582;SDS011;34299;50.820;4.548;2022-08-19T06:33:39;15.23;;;10.03;;
11582;SDS011;34299;50.820;4.548;2022-08-19T06:36:07;16.67;;;10.57;;
11582;SDS011;34299;50.820;4.548;2022-08-19T06:38:34;20.53;;;10.77;;
11582;SDS011;34299;50.820;4.548;2022-08-19T06:41:02;14.70;;;8.80;;
11582;SDS011;34299;50.820;4.548;2022-08-19T06:43:31;16.87;;;8.93;;
11582;SDS011;34299;50.820;4.548;2022-08-19T06:45:58;14.60;;;7.90;;
11582;SDS011;34299;50.820;4.548;2022-08-19T06:48:26;12.30;;;7.17;;
11582;SDS011;34299;50.820;4.548;2022-08-19T06:50:53;11.17;;;6.83;;
11582;SDS011;34299;50.820;4.548;2022-08-19T06:53:20;14.60;;;8.03;;
11582;SDS011;34299;50.820;4.548;2022-08-19T06:55:48;12.60;;;6.07;;
11582;SDS011;34299;50.820;4.548;2022-08-19T06:58:22;11.27;;;6.17;;
11582;SDS011;34299;50.820;4.548;2022-08-19T07:00:51;10.90;;;6.10;;
11582;SDS011;34299;50.820;4.548;2022-08-19T07:03:18;10.20;;;6.40;;
11582;SDS011;34299;50.820;4.548;2022-08-19T07:05:46;10.93;;;6.73;;
11582;SDS011;34299;50.820;4.548;2022-08-19T07:08:13;13.30;;;6.37;;
11582;SDS011;34299;50.820;4.548;2022-08-19T07:10:42;10.30;;;6.43;;
11582;SDS011;34299;50.820;4.548;2022-08-19T07:13:09;9.10;;;5.93;;
11582;SDS011;34299;50.820;4.548;2022-08-19T07:15:37;10.40;;;5.83;;
11582;SDS011;34299;50.820;4.548;2022-08-19T07:18:05;11.10;;;6.07;;
11582;SDS011;34299;50.820;4.548;2022-08-19T07:20:32;10.23;;;4.93;;
11582;SDS011;34299;50.820;4.548;2022-08-19T07:23:00;8.70;;;4.97;;
11582;SDS011;34299;50.820;4.548;2022-08-19T07:25:27;6.97;;;4.50;;
11582;SDS011;34299;50.820;4.548;2022-08-19T07:27:54;8.67;;;4.53;;
11582;SDS011;34299;50.820;4.548;2022-08-19T07:30:22;7.20;;;5.07;;
11582;SDS011;34299;50.820;4.548;2022-08-19T07:32:49;8.43;;;5.03;;
11582;SDS011;34299;50.820;4.548;2022-08-19T07:35:18;7.50;;;4.90;;
11582;SDS011;34299;50.820;4.548;2022-08-19T07:37:45;11.50;;;5.27;;
11582;SDS011;34299;50.820;4.548;2022-08-19T07:40:13;10.23;;;4.93;;
11582;SDS011;34299;50.820;4.548;2022-08-19T07:42:40;11.30;;;5.17;;
11582;SDS011;34299;50.820;4.548;2022-08-19T07:45:08;7.53;;;5.23;;
11582;SDS011;34299;50.820;4.548;2022-08-19T07:47:36;6.70;;;4.30;;
11582;SDS011;34299;50.820;4.548;2022-08-19T07:50:05;5.47;;;4.43;;
11582;SDS011;34299;50.820;4.548;2022-08-19T07:52:33;8.17;;;5.03;;
11582;SDS011;34299;50.820;4.548;2022-08-19T07:55:03;9.83;;;5.67;;
11582;SDS011;34299;50.820;4.548;2022-08-19T07:57:31;5.23;;;4.70;;
11582;SDS011;34299;50.820;4.548;2022-08-19T07:59:58;5.27;;;3.93;;
11582;SDS011;34299;50.820;4.548;2022-08-19T08:02:25;7.60;;;4.63;;
11582;SDS011;34299;50.820;4.548;2022-08-19T08:04:52;8.00;;;5.07;;
11582;SDS011;34299;50.820;4.548;2022-08-19T08:07:39;6.73;;;4.00;;
11582;SDS011;34299;50.820;4.548;2022-08-19T08:10:23;6.97;;;4.43;;
11582;SDS011;34299;50.820;4.548;2022-08-19T08:12:50;8.67;;;4.30;;
11582;SDS011;34299;50.820;4.548;2022-08-19T08:15:18;6.60;;;5.00;;
11582;SDS011;34299;50.820;4.548;2022-08-19T08:17:45;6.17;;;4.23;;
11582;SDS011;34299;50.820;4.548;2022-08-19T08:20:13;7.53;;;4.60;;
11582;SDS011;34299;50.820;4.548;2022-08-19T08:22:44;8.70;;;5.17;;
11582;SDS011;34299;50.820;4.548;2022-08-19T08:25:29;7.10;;;4.50;;
11582;SDS011;34299;50.820;4.548;2022-08-19T08:27:57;7.73;;;4.30;;
11582;SDS011;34299;50.820;4.548;2022-08-19T08:30:25;9.57;;;5.13;;
11582;SDS011;34299;50.820;4.548;2022-08-19T08:32:53;7.70;;;4.00;;
11582;SDS011;34299;50.820;4.548;2022-08-19T08:35:21;7.70;;;4.30;;
11582;SDS011;34299;50.820;4.548;2022-08-19T08:37:52;6.80;;;4.60;;
11582;SDS011;34299;50.820;4.548;2022-08-19T08:40:22;8.57;;;4.43;;
11582;SDS011;34299;50.820;4.548;2022-08-19T08:42:51;4.23;;;3.87;;
11582;SDS011;34299;50.820;4.548;2022-08-19T08:45:23;4.37;;;3.57;;
11582;SDS011;34299;50.820;4.548;2022-08-19T08:47:51;5.33;;;3.80;;
11582;SDS011;34299;50.820;4.548;2022-08-19T08:50:20;4.80;;;3.50;;
11582;SDS011;34299;50.820;4.548;2022-08-19T08:52:50;3.83;;;3.13;;
11582;SDS011;34299;50.820;4.548;2022-08-19T08:55:19;6.37;;;4.00;;
11582;SDS011;34299;50.820;4.548;2022-08-19T08:57:50;4.73;;;3.33;;
11582;SDS011;34299;50.820;4.548;2022-08-19T09:00:20;4.30;;;3.40;;
11582;SDS011;34299;50.820;4.548;2022-08-19T09:02:49;5.00;;;3.40;;
11582;SDS011;34299;50.820;4.548;2022-08-19T09:05:16;5.03;;;3.20;;
11582;SDS011;34299;50.820;4.548;2022-08-19T09:07:47;5.60;;;3.80;;
11582;SDS011;34299;50.820;4.548;2022-08-19T09:10:23;5.43;;;3.03;;
11582;SDS011;34299;50.820;4.548;2022-08-19T09:12:56;3.30;;;2.70;;
11582;SDS011;34299;50.820;4.548;2022-08-19T09:15:28;2.43;;;2.23;;
11582;SDS011;34299;50.820;4.548;2022-08-19T09:17:58;3.73;;;2.37;;
11582;SDS011;34299;50.820;4.548;2022-08-19T09:20:27;3.67;;;2.80;;
11582;SDS011;34299;50.820;4.548;2022-08-19T09:22:56;4.23;;;2.77;;
11582;SDS011;34299;50.820;4.548;2022-08-19T09:25:24;4.23;;;2.47;;
11582;SDS011;34299;50.820;4.548;2022-08-19T09:27:53;4.17;;;3.20;;
11582;SDS011;34299;50.820;4.548;2022-08-19T09:30:22;5.97;;;2.60;;
11582;SDS011;34299;50.820;4.548;2022-08-19T09:32:50;7.10;;;2.67;;
11582;SDS011;34299;50.820;4.548;2022-08-19T09:35:18;5.53;;;2.90;;
11582;SDS011;34299;50.820;4.548;2022-08-19T09:37:47;4.40;;;2.87;;
11582;SDS011;34299;50.820;4.548;2022-08-19T09:40:15;3.80;;;2.77;;
11582;SDS011;34299;50.820;4.548;2022-08-19T09:42:44;5.23;;;2.70;;
11582;SDS011;34299;50.820;4.548;2022-08-19T09:45:12;4.83;;;3.00;;
11582;SDS011;34299;50.820;4.548;2022-08-19T09:47:40;3.03;;;2.60;;
11582;SDS011;34299;50.820;4.548;2022-08-19T09:50:08;5.10;;;3.10;;
11582;SDS011;34299;50.820;4.548;2022-08-19T09:52:36;4.73;;;2.73;;
11582;SDS011;34299;50.820;4.548;2022-08-19T09:55:03;4.70;;;3.30;;
11582;SDS011;34299;50.820;4.548;2022-08-19T09:57:31;4.17;;;2.70;;
11582;SDS011;34299;50.820;4.548;2022-08-19T09:59:59;4.63;;;3.10;;
11582;SDS011;34299;50.820;4.548;2022-08-19T10:02:26;4.10;;;3.03;;
11582;SDS011;34299;50.820;4.548;2022-08-19T10:04:54;4.33;;;3.47;;
11582;SDS011;34299;50.820;4.548;2022-08-19T10:07:38;5.07;;;3.40;;
11582;SDS011;34299;50.820;4.548;2022-08-19T10:10:06;4.57;;;3.00;;
11582;SDS011;34299;50.820;4.548;2022-08-19T10:12:34;4.47;;;3.23;;
11582;SDS011;34299;50.820;4.548;2022-08-19T10:15:04;4.57;;;3.30;;
11582;SDS011;34299;50.820;4.548;2022-08-19T10:17:31;4.67;;;3.30;;
11582;SDS011;34299;50.820;4.548;2022-08-19T10:20:00;5.07;;;3.63;;
11582;SDS011;34299;50.820;4.548;2022-08-19T10:22:29;4.47;;;3.20;;
11582;SDS011;34299;50.820;4.548;2022-08-19T10:24:56;4.97;;;3.10;;
11582;SDS011;34299;50.820;4.548;2022-08-19T10:27:23;4.73;;;3.03;;
11582;SDS011;34299;50.820;4.548;2022-08-19T10:29:50;3.17;;;2.87;;
11582;SDS011;34299;50.820;4.548;2022-08-19T10:32:19;3.03;;;2.70;;
11582;SDS011;34299;50.820;4.548;2022-08-19T10:34:46;7.83;;;3.87;;
11582;SDS011;34299;50.820;4.548;2022-08-19T10:37:14;3.87;;;3.07;;
11582;SDS011;34299;50.820;4.548;2022-08-19T10:39:42;4.03;;;3.00;;
11582;SDS011;34299;50.820;4.548;2022-08-19T10:42:12;5.17;;;2.53;;
11582;SDS011;34299;50.820;4.548;2022-08-19T10:44:41;3.50;;;2.83;;
11582;SDS011;34299;50.820;4.548;2022-08-19T10:47:09;8.37;;;3.60;;
11582;SDS011;34299;50.820;4.548;2022-08-19T10:49:37;4.47;;;2.70;;
11582;SDS011;34299;50.820;4.548;2022-08-19T10:52:24;3.23;;;2.67;;
11582;SDS011;34299;50.820;4.548;2022-08-19T10:55:00;4.83;;;3.43;;
11582;SDS011;34299;50.820;4.548;2022-08-19T10:57:44;4.13;;;3.33;;
11582;SDS011;34299;50.820;4.548;2022-08-19T11:00:11;6.50;;;3.27;;
11582;SDS011;34299;50.820;4.548;2022-08-19T11:02:39;5.00;;;3.77;;
11582;SDS011;34299;50.820;4.548;2022-08-19T11:05:08;5.10;;;3.37;;
11582;SDS011;34299;50.820;4.548;2022-08-19T11:07:36;5.50;;;3.57;;
11582;SDS011;34299;50.820;4.548;2022-08-19T11:10:04;5.83;;;3.47;;
11582;SDS011;34299;50.820;4.548;2022-08-19T11:12:32;6.17;;;3.77;;
11582;SDS011;34299;50.820;4.548;2022-08-19T11:14:59;4.40;;;3.20;;
11582;SDS011;34299;50.820;4.548;2022-08-19T11:17:26;4.30;;;3.40;;
11582;SDS011;34299;50.820;4.548;2022-08-19T11:19:56;5.33;;;4.03;;
11582;SDS011;34299;50.820;4.548;2022-08-19T11:22:30;5.30;;;3.60;;
11582;SDS011;34299;50.820;4.548;2022-08-19T11:24:57;4.77;;;3.80;;
11582;SDS011;34299;50.820;4.548;2022-08-19T11:27:24;4.90;;;4.13;;
11582;SDS011;34299;50.820;4.548;2022-08-19T11:29:52;5.50;;;3.80;;
11582;SDS011;34299;50.820;4.548;2022-08-19T11:32:19;6.70;;;4.43;;
11582;SDS011;34299;50.820;4.548;2022-08-19T11:34:46;5.97;;;4.30;;
11582;SDS011;34299;50.820;4.548;2022-08-19T11:37:13;10.03;;;5.13;;
11582;SDS011;34299;50.820;4.548;2022-08-19T11:39:42;8.73;;;5.23;;
11582;SDS011;34299;50.820;4.548;2022-08-19T11:42:09;8.77;;;5.83;;
11582;SDS011;34299;50.820;4.548;2022-08-19T11:44:54;8.13;;;4.70;;
11582;SDS011;34299;50.820;4.548;2022-08-19T11:47:21;6.70;;;5.13;;
11582;SDS011;34299;50.820;4.548;2022-08-19T11:49:49;8.57;;;5.17;;
11582;SDS011;34299;50.820;4.548;2022-08-19T11:52:16;6.50;;;4.97;;
11582;SDS011;34299;50.820;4.548;2022-08-19T11:54:44;6.97;;;4.77;;
11582;SDS011;34299;50.820;4.548;2022-08-19T11:57:12;8.00;;;5.27;;
11582;SDS011;34299;50.820;4.548;2022-08-19T11:59:41;8.47;;;4.90;;
11582;SDS011;34299;50.820;4.548;2022-08-19T12:02:09;6.93;;;4.83;;
11582;SDS011;34299;50.820;4.548;2022-08-19T12:04:36;7.20;;;5.37;;
11582;SDS011;34299;50.820;4.548;2022-08-19T12:07:03;6.07;;;5.00;;
11582;SDS011;34299;50.820;4.548;2022-08-19T12:09:31;8.70;;;4.47;;
11582;SDS011;34299;50.820;4.548;2022-08-19T12:12:00;6.10;;;4.77;;
11582;SDS011;34299;50.820;4.548;2022-08-19T12:14:28;5.97;;;4.73;;
11582;SDS011;34299;50.820;4.548;2022-08-19T12:16:57;4.93;;;3.73;;
11582;SDS011;34299;50.820;4.548;2022-08-19T12:19:25;5.77;;;3.87;;
11582;SDS011;34299;50.820;4.548;2022-08-19T12:21:53;5.50;;;4.17;;
11582;SDS011;34299;50.820;4.548;2022-08-19T12:24:26;5.77;;;4.00;;
11582;SDS011;34299;50.820;4.548;2022-08-19T12:26:54;6.20;;;4.43;;
11582;SDS011;34299;50.820;4.548;2022-08-19T12:29:23;8.93;;;4.70;;
11582;SDS011;34299;50.820;4.548;2022-08-19T12:31:53;5.33;;;3.67;;
11582;SDS011;34299;50.820;4.548;2022-08-19T12:34:26;6.03;;;4.10;;
11582;SDS011;34299;50.820;4.548;2022-08-19T12:36:55;7.40;;;3.57;;
11582;SDS011;34299;50.820;4.548;2022-08-19T12:39:22;3.97;;;3.57;;
11582;SDS011;34299;50.820;4.548;2022-08-19T12:41:49;5.47;;;3.50;;
11582;SDS011;34299;50.820;4.548;2022-08-19T12:44:17;4.60;;;3.30;;
11582;SDS011;34299;50.820;4.548;2022-08-19T12:46:46;4.70;;;3.17;;
11582;SDS011;34299;50.820;4.548;2022-08-19T12:49:14;4.63;;;3.13;;
11582;SDS011;34299;50.820;4.548;2022-08-19T12:51:41;3.30;;;3.00;;
11582;SDS011;34299;50.820;4.548;2022-08-19T12:54:09;3.77;;;3.10;;
11582;SDS011;34299;50.820;4.548;2022-08-19T12:56:36;6.97;;;2.90;;
11582;SDS011;34299;50.820;4.548;2022-08-19T12:59:03;2.97;;;2.67;;
11582;SDS011;34299;50.820;4.548;2022-08-19T13:01:32;4.20;;;2.50;;
11582;SDS011;34299;50.820;4.548;2022-08-19T13:04:01;2.77;;;2.37;;
11582;SDS011;34299;50.820;4.548;2022-08-19T13:06:29;3.13;;;2.40;;
11582;SDS011;34299;50.820;4.548;2022-08-19T13:08:56;3.17;;;2.40;;
11582;SDS011;34299;50.820;4.548;2022-08-19T13:11:23;2.03;;;1.67;;
11582;SDS011;34299;50.820;4.548;2022-08-19T13:13:51;2.70;;;2.00;;
11582;SDS011;34299;50.820;4.548;2022-08-19T13:16:20;2.30;;;2.13;;
11582;SDS011;34299;50.820;4.548;2022-08-19T13:18:48;2.10;;;1.90;;
11582;SDS011;34299;50.820;4.548;2022-08-19T13:21:17;3.57;;;1.63;;
11582;SDS011;34299;50.820;4.548;2022-08-19T13:23:46;2.43;;;1.97;;
11582;SDS011;34299;50.820;4.548;2022-08-19T13:26:13;4.17;;;1.70;;
11582;SDS011;34299;50.820;4.548;2022-08-19T13:28:41;2.33;;;1.67;;
11582;SDS011;34299;50.820;4.548;2022-08-19T13:31:28;1.63;;;1.53;;
11582;SDS011;34299;50.820;4.548;2022-08-19T13:34:26;1.57;;;1.47;;
11582;SDS011;34299;50.820;4.548;2022-08-19T13:36:55;2.93;;;1.60;;
11582;SDS011;34299;50.820;4.548;2022-08-19T13:39:22;1.83;;;1.40;;
11582;SDS011;34299;50.820;4.548;2022-08-19T13:41:50;1.87;;;1.20;;
11582;SDS011;34299;50.820;4.548;2022-08-19T13:44:17;2.07;;;1.60;;
11582;SDS011;34299;50.820;4.548;2022-08-19T13:46:44;1.50;;;1.40;;
11582;SDS011;34299;50.820;4.548;2022-08-19T13:49:12;2.13;;;1.63;;
11582;SDS011;34299;50.820;4.548;2022-08-19T13:51:39;1.60;;;1.50;;
11582;SDS011;34299;50.820;4.548;2022-08-19T13:54:08;2.23;;;1.70;;
11582;SDS011;34299;50.820;4.548;2022-08-19T13:56:39;1.63;;;1.30;;
11582;SDS011;34299;50.820;4.548;2022-08-19T13:59:06;1.97;;;1.30;;
11582;SDS011;34299;50.820;4.548;2022-08-19T14:01:34;3.00;;;1.50;;
11582;SDS011;34299;50.820;4.548;2022-08-19T14:04:01;1.50;;;1.40;;
11582;SDS011;34299;50.820;4.548;2022-08-19T14:06:28;1.63;;;1.53;;
11582;SDS011;34299;50.820;4.548;2022-08-19T14:08:55;1.63;;;1.53;;
11582;SDS011;34299;50.820;4.548;2022-08-19T14:11:24;2.33;;;1.87;;
11582;SDS011;34299;50.820;4.548;2022-08-19T14:13:52;1.37;;;1.20;;
11582;SDS011;34299;50.820;4.548;2022-08-19T14:16:19;1.73;;;1.50;;
11582;SDS011;34299;50.820;4.548;2022-08-19T14:18:47;2.67;;;1.60;;
11582;SDS011;34299;50.820;4.548;2022-08-19T14:21:15;1.57;;;1.23;;
11582;SDS011;34299;50.820;4.548;2022-08-19T14:23:42;2.60;;;1.20;;
11582;SDS011;34299;50.820;4.548;2022-08-19T14:26:11;1.43;;;1.27;;
11582;SDS011;34299;50.820;4.548;2022-08-19T14:28:40;4.10;;;1.40;;
11582;SDS011;34299;50.820;4.548;2022-08-19T14:31:08;2.90;;;1.27;;
11582;SDS011;34299;50.820;4.548;2022-08-19T14:33:35;2.53;;;1.20;;
11582;SDS011;34299;50.820;4.548;2022-08-19T14:36:02;2.17;;;1.10;;
11582;SDS011;34299;50.820;4.548;2022-08-19T14:38:30;1.37;;;1.10;;
11582;SDS011;34299;50.820;4.548;2022-08-19T14:41:11;4.10;;;1.30;;
11582;SDS011;34299;50.820;4.548;2022-08-19T14:43:42;2.13;;;1.30;;
11582;SDS011;34299;50.820;4.548;2022-08-19T14:46:11;5.57;;;1.30;;